sensor_id;sensor_type;location;lat;lon;timestamp;pressure;altitude;pressure_sealevel;temperature;humidity
6024;BME280;3040;42.654;23.296;2023-04-20T00:01:51;93870.25;;;10.75;68.25
6024;BME280;3040;42.654;23.296;2023-04-20T00:04:18;93874.13;;;10.77;67.54
6024;BME280;3040;42.654;23.296;2023-04-20T00:06:45;93884.94;;;10.84;68.31
6024;BME280;3040;42.654;23.296;2023-04-20T00:09:15;93870.44;;;10.82;69.05
6024;BME280;3040;42.654;23.296;2023-04-20T00:11:42;93864.94;;;10.75;69.37
6024;BME280;3040;42.654;23.296;2023-04-20T00:14:09;93861.34;;;10.67;69.42
6024;BME280;3040;42.654;23.296;2023-04-20T00:16:36;93854.16;;;10.68;69.53
6024;BME280;3040;42.654;23.296;2023-04-20T00:19:02;93853.63;;;10.62;69.36
6024;BME280;3040;42.654;23.296;2023-04-20T00:21:29;93854.50;;;10.66;69.43
6024;BME280;3040;42.654;23.296;2023-04-20T00:23:56;93852.25;;;10.68;69.29
6024;BME280;3040;42.654;23.296;2023-04-20T00:26:25;93852.88;;;10.61;70.18
6024;BME280;3040;42.654;23.296;2023-04-20T00:28:53;93858.13;;;10.58;69.37
6024;BME280;3040;42.654;23.296;2023-04-20T00:31:20;93852.88;;;10.61;69.19
6024;BME280;3040;42.654;23.296;2023-04-20T00:33:47;93844.38;;;10.56;69.24
6024;BME280;3040;42.654;23.296;2023-04-20T00:36:14;93845.09;;;10.53;68.62
6024;BME280;3040;42.654;23.296;2023-04-20T00:38:41;93845.16;;;10.56;69.86
6024;BME280;3040;42.654;23.296;2023-04-20T00:41:08;93842.16;;;10.58;69.17
6024;BME280;3040;42.654;23.296;2023-04-20T00:43:36;93851.97;;;10.54;69.57
6024;BME280;3040;42.654;23.296;2023-04-20T00:46:03;93853.06;;;10.53;69.96
6024;BME280;3040;42.654;23.296;2023-04-20T00:48:30;93818.22;;;10.23;70.62
6024;BME280;3040;42.654;23.296;2023-04-20T00:50:57;93708.69;;;9.67;71.02
6024;BME280;3040;42.654;23.296;2023-04-20T00:53:25;93839.56;;;10.77;69.65
6024;BME280;3040;42.654;23.296;2023-04-20T00:55:52;93846.59;;;11.05;69.39
6024;BME280;3040;42.654;23.296;2023-04-20T00:58:19;93846.38;;;11.13;69.42
6024;BME280;3040;42.654;23.296;2023-04-20T01:00:47;93842.97;;;11.32;68.04
6024;BME280;3040;42.654;23.296;2023-04-20T01:03:14;93845.88;;;11.46;67.79
6024;BME280;3040;42.654;23.296;2023-04-20T01:05:41;93850.72;;;11.40;68.92
6024;BME280;3040;42.654;23.296;2023-04-20T01:08:08;93839.44;;;11.47;70.58
6024;BME280;3040;42.654;23.296;2023-04-20T01:10:35;93840.34;;;11.55;68.79
6024;BME280;3040;42.654;23.296;2023-04-20T01:13:02;93840.16;;;11.44;68.45
6024;BME280;3040;42.654;23.296;2023-04-20T01:15:29;93833.59;;;11.38;68.96
6024;BME280;3040;42.654;23.296;2023-04-20T01:17:57;93851.06;;;11.58;68.27
6024;BME280;3040;42.654;23.296;2023-04-20T01:20:24;93844.47;;;11.71;68.84
6024;BME280;3040;42.654;23.296;2023-04-20T01:22:52;93843.81;;;11.74;67.55
6024;BME280;3040;42.654;23.296;2023-04-20T01:25:19;93846.88;;;11.76;70.50
6024;BME280;3040;42.654;23.296;2023-04-20T01:27:46;93849.13;;;11.74;68.22
6024;BME280;3040;42.654;23.296;2023-04-20T01:30:14;93851.50;;;11.79;68.63
6024;BME280;3040;42.654;23.296;2023-04-20T01:32:42;93838.56;;;11.81;67.83
6024;BME280;3040;42.654;23.296;2023-04-20T01:35:09;93810.13;;;11.66;68.53
6024;BME280;3040;42.654;23.296;2023-04-20T01:37:37;93845.53;;;11.86;67.88
6024;BME280;3040;42.654;23.296;2023-04-20T01:40:07;93790.72;;;11.05;68.73
6024;BME280;3040;42.654;23.296;2023-04-20T01:42:35;93841.72;;;11.26;70.77
6024;BME280;3040;42.654;23.296;2023-04-20T01:45:03;93842.41;;;11.42;69.73
6024;BME280;3040;42.654;23.296;2023-04-20T01:47:31;93830.66;;;11.66;70.07
6024;BME280;3040;42.654;23.296;2023-04-20T01:49:58;93837.69;;;11.74;69.22
6024;BME280;3040;42.654;23.296;2023-04-20T01:52:24;93830.03;;;11.72;69.12
6024;BME280;3040;42.654;23.296;2023-04-20T01:54:52;93789.56;;;11.44;68.73
6024;BME280;3040;42.654;23.296;2023-04-20T01:57:20;93821.53;;;11.25;70.05
6024;BME280;3040;42.654;23.296;2023-04-20T01:59:47;93803.03;;;11.13;69.48
6024;BME280;3040;42.654;23.296;2023-04-20T02:02:14;93820.66;;;11.59;69.16
6024;BME280;3040;42.654;23.296;2023-04-20T02:04:41;93833.97;;;11.78;69.68
6024;BME280;3040;42.654;23.296;2023-04-20T02:07:08;93829.47;;;11.82;68.11
6024;BME280;3040;42.654;23.296;2023-04-20T02:09:35;93823.97;;;11.95;68.62
6024;BME280;3040;42.654;23.296;2023-04-20T02:12:02;93818.25;;;11.93;67.61
6024;BME280;3040;42.654;23.296;2023-04-20T02:14:30;93821.44;;;12.02;67.63
6024;BME280;3040;42.654;23.296;2023-04-20T02:16:57;93801.94;;;11.98;67.37
6024;BME280;3040;42.654;23.296;2023-04-20T02:19:25;93822.97;;;12.03;67.29
6024;BME280;3040;42.654;23.296;2023-04-20T02:21:52;93816.34;;;12.16;67.15
6024;BME280;3040;42.654;23.296;2023-04-20T02:24:18;93824.16;;;12.05;66.18
6024;BME280;3040;42.654;23.296;2023-04-20T02:26:45;93825.81;;;11.91;66.77
6024;BME280;3040;42.654;23.296;2023-04-20T02:29:12;93830.53;;;12.01;66.03
6024;BME280;3040;42.654;23.296;2023-04-20T02:31:41;93809.31;;;11.62;66.86
6024;BME280;3040;42.654;23.296;2023-04-20T02:34:07;93824.00;;;11.75;67.78
6024;BME280;3040;42.654;23.296;2023-04-20T02:36:36;93774.91;;;11.54;67.15
6024;BME280;3040;42.654;23.296;2023-04-20T02:39:03;93823.25;;;11.75;67.11
6024;BME280;3040;42.654;23.296;2023-04-20T02:41:30;93829.06;;;11.61;66.72
6024;BME280;3040;42.654;23.296;2023-04-20T02:43:57;93826.13;;;11.66;66.82
6024;BME280;3040;42.654;23.296;2023-04-20T02:46:24;93829.97;;;11.69;66.54
6024;BME280;3040;42.654;23.296;2023-04-20T02:48:52;93827.25;;;11.46;67.55
6024;BME280;3040;42.654;23.296;2023-04-20T02:51:20;93822.56;;;11.39;66.87
6024;BME280;3040;42.654;23.296;2023-04-20T02:53:48;93820.56;;;11.14;68.48
6024;BME280;3040;42.654;23.296;2023-04-20T02:56:15;93785.13;;;10.90;68.15
6024;BME280;3040;42.654;23.296;2023-04-20T02:58:42;93805.41;;;11.18;68.13
6024;BME280;3040;42.654;23.296;2023-04-20T03:01:09;93791.03;;;11.03;68.26
6024;BME280;3040;42.654;23.296;2023-04-20T03:03:36;93819.84;;;11.17;68.23
6024;BME280;3040;42.654;23.296;2023-04-20T03:06:04;93815.38;;;11.21;69.16
6024;BME280;3040;42.654;23.296;2023-04-20T03:08:31;93825.16;;;11.36;68.97
6024;BME280;3040;42.654;23.296;2023-04-20T03:10:58;93823.34;;;11.40;68.27
6024;BME280;3040;42.654;23.296;2023-04-20T03:13:25;93822.59;;;11.20;69.35
6024;BME280;3040;42.654;23.296;2023-04-20T03:15:52;93828.53;;;11.33;69.01
6024;BME280;3040;42.654;23.296;2023-04-20T03:18:19;93816.81;;;10.99;69.39
6024;BME280;3040;42.654;23.296;2023-04-20T03:20:46;93816.19;;;10.86;70.11
6024;BME280;3040;42.654;23.296;2023-04-20T03:23:14;93797.91;;;10.66;70.06
6024;BME280;3040;42.654;23.296;2023-04-20T03:25:41;93758.16;;;10.38;71.06
6024;BME280;3040;42.654;23.296;2023-04-20T03:28:09;93809.31;;;10.85;69.54
6024;BME280;3040;42.654;23.296;2023-04-20T03:30:36;93814.84;;;10.77;70.49
6024;BME280;3040;42.654;23.296;2023-04-20T03:33:02;93819.81;;;10.78;70.56
6024;BME280;3040;42.654;23.296;2023-04-20T03:35:30;93820.97;;;10.61;69.96
6024;BME280;3040;42.654;23.296;2023-04-20T03:37:57;93818.69;;;10.44;70.87
6024;BME280;3040;42.654;23.296;2023-04-20T03:40:25;93826.03;;;10.51;71.26
6024;BME280;3040;42.654;23.296;2023-04-20T03:42:52;93819.72;;;10.75;71.01
6024;BME280;3040;42.654;23.296;2023-04-20T03:45:19;93779.69;;;10.33;70.94
6024;BME280;3040;42.654;23.296;2023-04-20T03:47:47;93820.34;;;10.68;70.30
6024;BME280;3040;42.654;23.296;2023-04-20T03:50:15;93825.28;;;10.85;70.15
6024;BME280;3040;42.654;23.296;2023-04-20T03:52:41;93821.44;;;10.83;70.51
6024;BME280;3040;42.654;23.296;2023-04-20T03:55:08;93828.56;;;10.98;70.88
6024;BME280;3040;42.654;23.296;2023-04-20T03:57:37;93825.00;;;10.71;70.51
6024;BME280;3040;42.654;23.296;2023-04-20T04:00:04;93827.16;;;10.50;71.22
6024;BME280;3040;42.654;23.296;2023-04-20T04:02:31;93810.53;;;10.37;71.74
6024;BME280;3040;42.654;23.296;2023-04-20T04:04:58;93821.09;;;10.34;71.28
6024;BME280;3040;42.654;23.296;2023-04-20T04:07:25;93823.59;;;10.27;71.66
6024;BME280;3040;42.654;23.296;2023-04-20T04:09:52;93837.22;;;10.41;72.64
6024;BME280;3040;42.654;23.296;2023-04-20T04:12:19;93549.31;;;8.34;72.02
6024;BME280;3040;42.654;23.296;2023-04-20T04:14:47;93661.59;;;9.01;73.12
6024;BME280;3040;42.654;23.296;2023-04-20T04:17:14;93724.03;;;9.42;72.57
6024;BME280;3040;42.654;23.296;2023-04-20T04:19:41;93821.78;;;10.15;72.77
6024;BME280;3040;42.654;23.296;2023-04-20T04:22:08;93830.13;;;10.29;73.11
6024;BME280;3040;42.654;23.296;2023-04-20T04:24:35;93779.88;;;9.77;72.75
6024;BME280;3040;42.654;23.296;2023-04-20T04:27:03;93829.44;;;10.16;73.72
6024;BME280;3040;42.654;23.296;2023-04-20T04:29:31;93831.97;;;10.13;73.96
6024;BME280;3040;42.654;23.296;2023-04-20T04:32:01;93831.63;;;10.14;73.82
6024;BME280;3040;42.654;23.296;2023-04-20T04:34:29;93831.41;;;10.19;73.56
6024;BME280;3040;42.654;23.296;2023-04-20T04:36:58;93796.41;;;9.86;73.75
6024;BME280;3040;42.654;23.296;2023-04-20T04:39:26;93698.16;;;9.23;73.81
6024;BME280;3040;42.654;23.296;2023-04-20T04:41:53;93669.81;;;8.96;74.00
6024;BME280;3040;42.654;23.296;2023-04-20T04:44:20;93667.16;;;8.96;74.07
6024;BME280;3040;42.654;23.296;2023-04-20T04:46:47;93844.06;;;10.10;74.42
6024;BME280;3040;42.654;23.296;2023-04-20T04:49:15;93845.88;;;10.06;74.12
6024;BME280;3040;42.654;23.296;2023-04-20T04:51:43;93844.59;;;10.00;74.17
6024;BME280;3040;42.654;23.296;2023-04-20T04:54:10;93859.06;;;10.03;74.36
6024;BME280;3040;42.654;23.296;2023-04-20T04:56:36;93754.63;;;9.24;74.99
6024;BME280;3040;42.654;23.296;2023-04-20T04:59:03;93777.69;;;9.35;74.97
6024;BME280;3040;42.654;23.296;2023-04-20T05:01:30;93865.84;;;10.16;74.76
6024;BME280;3040;42.654;23.296;2023-04-20T05:03:57;93863.09;;;10.12;74.35
6024;BME280;3040;42.654;23.296;2023-04-20T05:06:25;93860.69;;;10.07;74.36
6024;BME280;3040;42.654;23.296;2023-04-20T05:08:52;93856.00;;;10.16;74.62
6024;BME280;3040;42.654;23.296;2023-04-20T05:11:19;93755.38;;;9.52;74.15
6024;BME280;3040;42.654;23.296;2023-04-20T05:13:46;93861.91;;;10.26;73.89
6024;BME280;3040;42.654;23.296;2023-04-20T05:16:14;93835.59;;;10.05;74.46
6024;BME280;3040;42.654;23.296;2023-04-20T05:18:41;93864.94;;;10.24;74.26
6024;BME280;3040;42.654;23.296;2023-04-20T05:21:08;93754.09;;;9.62;74.05
6024;BME280;3040;42.654;23.296;2023-04-20T05:23:37;93855.47;;;10.27;73.28
6024;BME280;3040;42.654;23.296;2023-04-20T05:26:04;93749.97;;;9.49;73.99
6024;BME280;3040;42.654;23.296;2023-04-20T05:28:32;93792.47;;;9.80;73.75
6024;BME280;3040;42.654;23.296;2023-04-20T05:30:59;93829.09;;;10.18;73.98
6024;BME280;3040;42.654;23.296;2023-04-20T05:33:26;93867.75;;;10.47;74.14
6024;BME280;3040;42.654;23.296;2023-04-20T05:35:55;93861.75;;;10.18;74.05
6024;BME280;3040;42.654;23.296;2023-04-20T05:38:22;93879.13;;;10.16;75.51
6024;BME280;3040;42.654;23.296;2023-04-20T05:40:50;93748.38;;;9.16;74.77
6024;BME280;3040;42.654;23.296;2023-04-20T05:43:17;93877.91;;;10.13;75.61
6024;BME280;3040;42.654;23.296;2023-04-20T05:45:44;93870.13;;;10.05;76.51
6024;BME280;3040;42.654;23.296;2023-04-20T05:48:11;93875.00;;;10.03;76.86
6024;BME280;3040;42.654;23.296;2023-04-20T05:50:38;93877.56;;;9.99;77.25
6024;BME280;3040;42.654;23.296;2023-04-20T05:53:06;93789.34;;;9.47;75.86
6024;BME280;3040;42.654;23.296;2023-04-20T05:55:33;93878.09;;;10.05;76.80
6024;BME280;3040;42.654;23.296;2023-04-20T05:58:01;93874.47;;;10.13;76.74
6024;BME280;3040;42.654;23.296;2023-04-20T06:00:28;93869.94;;;10.13;76.37
6024;BME280;3040;42.654;23.296;2023-04-20T06:02:55;93881.25;;;10.10;76.66
6024;BME280;3040;42.654;23.296;2023-04-20T06:05:24;93879.63;;;10.06;77.96
6024;BME280;3040;42.654;23.296;2023-04-20T06:07:51;93879.28;;;10.07;79.10
6024;BME280;3040;42.654;23.296;2023-04-20T06:10:18;93876.63;;;10.07;80.29
6024;BME280;3040;42.654;23.296;2023-04-20T06:12:45;93874.09;;;10.27;81.65
6024;BME280;3040;42.654;23.296;2023-04-20T06:15:14;93869.53;;;10.27;80.38
6024;BME280;3040;42.654;23.296;2023-04-20T06:17:41;93865.28;;;10.23;80.91
6024;BME280;3040;42.654;23.296;2023-04-20T06:20:08;93850.66;;;10.01;80.39
6024;BME280;3040;42.654;23.296;2023-04-20T06:22:36;93873.72;;;10.12;80.46
6024;BME280;3040;42.654;23.296;2023-04-20T06:25:07;93874.91;;;9.99;80.75
6024;BME280;3040;42.654;23.296;2023-04-20T06:27:34;93864.97;;;9.96;80.94
6024;BME280;3040;42.654;23.296;2023-04-20T06:30:01;93883.91;;;10.10;80.65
6024;BME280;3040;42.654;23.296;2023-04-20T06:32:30;93874.84;;;10.11;80.93
6024;BME280;3040;42.654;23.296;2023-04-20T06:34:58;93888.47;;;10.26;80.13
6024;BME280;3040;42.654;23.296;2023-04-20T06:37:25;93890.28;;;10.37;80.14
6024;BME280;3040;42.654;23.296;2023-04-20T06:39:52;93888.47;;;10.57;79.12
6024;BME280;3040;42.654;23.296;2023-04-20T06:42:19;93681.00;;;8.89;78.19
6024;BME280;3040;42.654;23.296;2023-04-20T06:44:46;93890.38;;;10.41;79.32
6024;BME280;3040;42.654;23.296;2023-04-20T06:47:13;93890.56;;;10.48;77.75
6024;BME280;3040;42.654;23.296;2023-04-20T06:49:41;93804.13;;;9.91;77.90
6024;BME280;3040;42.654;23.296;2023-04-20T06:52:08;93843.66;;;10.24;77.80
6024;BME280;3040;42.654;23.296;2023-04-20T06:54:35;93843.63;;;10.08;77.46
6024;BME280;3040;42.654;23.296;2023-04-20T06:57:02;93873.28;;;10.10;77.84
6024;BME280;3040;42.654;23.296;2023-04-20T06:59:29;93896.03;;;10.24;80.49
6024;BME280;3040;42.654;23.296;2023-04-20T07:01:56;93775.16;;;9.39;80.77
6024;BME280;3040;42.654;23.296;2023-04-20T07:04:23;93791.59;;;9.45;82.01
6024;BME280;3040;42.654;23.296;2023-04-20T07:06:51;93915.75;;;10.23;81.88
6024;BME280;3040;42.654;23.296;2023-04-20T07:09:18;93908.28;;;10.12;80.16
6024;BME280;3040;42.654;23.296;2023-04-20T07:11:47;93882.69;;;10.08;81.48
6024;BME280;3040;42.654;23.296;2023-04-20T07:14:14;93890.72;;;10.39;81.31
6024;BME280;3040;42.654;23.296;2023-04-20T07:16:41;93899.56;;;10.59;79.93
6024;BME280;3040;42.654;23.296;2023-04-20T07:19:07;93914.13;;;10.65;77.84
6024;BME280;3040;42.654;23.296;2023-04-20T07:21:35;93912.25;;;10.66;79.14
6024;BME280;3040;42.654;23.296;2023-04-20T07:24:03;93919.50;;;10.84;78.92
6024;BME280;3040;42.654;23.296;2023-04-20T07:26:30;93914.66;;;11.06;77.65
6024;BME280;3040;42.654;23.296;2023-04-20T07:28:58;93822.28;;;10.52;75.76
6024;BME280;3040;42.654;23.296;2023-04-20T07:31:25;93915.66;;;11.17;75.30
6024;BME280;3040;42.654;23.296;2023-04-20T07:33:52;93904.22;;;11.16;75.87
6024;BME280;3040;42.654;23.296;2023-04-20T07:36:19;93898.06;;;11.12;74.86
6024;BME280;3040;42.654;23.296;2023-04-20T07:38:47;93912.47;;;11.27;75.00
6024;BME280;3040;42.654;23.296;2023-04-20T07:41:15;93908.28;;;11.45;74.36
6024;BME280;3040;42.654;23.296;2023-04-20T07:43:42;93908.25;;;11.64;72.86
6024;BME280;3040;42.654;23.296;2023-04-20T07:46:09;93905.59;;;11.64;73.50
6024;BME280;3040;42.654;23.296;2023-04-20T07:48:37;93863.28;;;11.40;71.55
6024;BME280;3040;42.654;23.296;2023-04-20T07:51:04;93883.59;;;11.48;72.11
6024;BME280;3040;42.654;23.296;2023-04-20T07:53:31;93905.03;;;11.55;72.73
6024;BME280;3040;42.654;23.296;2023-04-20T07:55:59;93904.41;;;11.62;70.92
6024;BME280;3040;42.654;23.296;2023-04-20T07:58:28;93793.78;;;11.07;70.65
6024;BME280;3040;42.654;23.296;2023-04-20T08:00:54;93909.50;;;12.09;69.95
6024;BME280;3040;42.654;23.296;2023-04-20T08:03:21;93914.84;;;12.32;69.02
6024;BME280;3040;42.654;23.296;2023-04-20T08:05:48;93911.34;;;12.50;68.03
6024;BME280;3040;42.654;23.296;2023-04-20T08:08:15;93895.50;;;12.84;68.72
6024;BME280;3040;42.654;23.296;2023-04-20T08:10:42;93813.81;;;12.49;67.08
6024;BME280;3040;42.654;23.296;2023-04-20T08:13:09;93915.72;;;13.11;66.70
6024;BME280;3040;42.654;23.296;2023-04-20T08:15:37;93921.03;;;12.85;66.99
6024;BME280;3040;42.654;23.296;2023-04-20T08:18:04;93916.34;;;13.27;67.06
6024;BME280;3040;42.654;23.296;2023-04-20T08:20:31;93920.00;;;13.16;65.79
6024;BME280;3040;42.654;23.296;2023-04-20T08:22:58;93908.63;;;13.19;66.15
6024;BME280;3040;42.654;23.296;2023-04-20T08:25:25;93910.69;;;13.06;66.40
6024;BME280;3040;42.654;23.296;2023-04-20T08:27:52;93922.13;;;12.80;67.13
6024;BME280;3040;42.654;23.296;2023-04-20T08:30:18;93910.22;;;13.00;65.99
6024;BME280;3040;42.654;23.296;2023-04-20T08:32:47;93927.34;;;12.73;67.54
6024;BME280;3040;42.654;23.296;2023-04-20T08:35:14;93924.88;;;12.38;68.65
6024;BME280;3040;42.654;23.296;2023-04-20T08:37:40;93881.75;;;12.10;68.98
6024;BME280;3040;42.654;23.296;2023-04-20T08:40:08;93909.09;;;12.07;69.91
6024;BME280;3040;42.654;23.296;2023-04-20T08:42:35;93918.91;;;12.03;70.67
6024;BME280;3040;42.654;23.296;2023-04-20T08:45:03;93921.31;;;11.89;70.18
6024;BME280;3040;42.654;23.296;2023-04-20T08:47:30;93915.28;;;11.72;71.19
6024;BME280;3040;42.654;23.296;2023-04-20T08:50:02;93904.22;;;11.51;71.86
6024;BME280;3040;42.654;23.296;2023-04-20T08:52:30;93906.59;;;11.56;71.94
6024;BME280;3040;42.654;23.296;2023-04-20T08:54:57;93922.56;;;11.75;71.77
6024;BME280;3040;42.654;23.296;2023-04-20T08:57:24;93929.88;;;11.78;71.39
6024;BME280;3040;42.654;23.296;2023-04-20T08:59:51;93927.22;;;11.98;70.58
6024;BME280;3040;42.654;23.296;2023-04-20T09:02:18;93904.47;;;11.65;71.88
6024;BME280;3040;42.654;23.296;2023-04-20T09:04:46;93821.25;;;11.11;72.04
6024;BME280;3040;42.654;23.296;2023-04-20T09:07:19;93931.69;;;11.94;71.56
6024;BME280;3040;42.654;23.296;2023-04-20T09:09:53;93935.69;;;12.03;71.57
6024;BME280;3040;42.654;23.296;2023-04-20T09:12:20;93923.72;;;11.74;71.45
6024;BME280;3040;42.654;23.296;2023-04-20T09:14:50;93931.09;;;11.81;71.13
6024;BME280;3040;42.654;23.296;2023-04-20T09:17:29;93938.56;;;11.75;70.76
6024;BME280;3040;42.654;23.296;2023-04-20T09:19:56;93932.97;;;11.80;71.68
6024;BME280;3040;42.654;23.296;2023-04-20T09:22:29;93935.34;;;12.05;72.30
6024;BME280;3040;42.654;23.296;2023-04-20T09:24:56;93934.47;;;12.20;70.59
6024;BME280;3040;42.654;23.296;2023-04-20T09:27:23;93931.22;;;12.53;70.29
6024;BME280;3040;42.654;23.296;2023-04-20T09:29:56;93927.88;;;12.82;68.41
6024;BME280;3040;42.654;23.296;2023-04-20T09:32:23;93926.19;;;12.71;67.89
6024;BME280;3040;42.654;23.296;2023-04-20T09:34:50;93920.09;;;12.74;68.40
6024;BME280;3040;42.654;23.296;2023-04-20T09:37:17;93920.84;;;12.71;67.13
6024;BME280;3040;42.654;23.296;2023-04-20T09:39:46;93876.34;;;12.29;68.41
6024;BME280;3040;42.654;23.296;2023-04-20T09:42:14;93908.66;;;12.96;67.96
6024;BME280;3040;42.654;23.296;2023-04-20T09:44:41;93914.91;;;13.33;66.24
6024;BME280;3040;42.654;23.296;2023-04-20T09:47:17;93906.50;;;13.31;65.16
6024;BME280;3040;42.654;23.296;2023-04-20T09:49:44;93911.00;;;13.27;65.98
6024;BME280;3040;42.654;23.296;2023-04-20T09:52:15;93906.88;;;13.33;65.85
6024;BME280;3040;42.654;23.296;2023-04-20T09:54:43;93815.25;;;13.26;65.23
6024;BME280;3040;42.654;23.296;2023-04-20T09:57:13;93898.13;;;14.00;63.30
6024;BME280;3040;42.654;23.296;2023-04-20T09:59:41;93912.00;;;14.12;62.50
6024;BME280;3040;42.654;23.296;2023-04-20T10:02:09;93880.44;;;13.88;63.13
6024;BME280;3040;42.654;23.296;2023-04-20T10:04:37;93903.66;;;14.17;62.15
6024;BME280;3040;42.654;23.296;2023-04-20T10:07:04;93890.75;;;13.86;64.38
6024;BME280;3040;42.654;23.296;2023-04-20T10:09:32;93884.66;;;14.30;62.48
6024;BME280;3040;42.654;23.296;2023-04-20T10:12:05;93897.34;;;13.96;63.25
6024;BME280;3040;42.654;23.296;2023-04-20T10:14:34;93882.56;;;13.72;63.55
6024;BME280;3040;42.654;23.296;2023-04-20T10:17:03;93863.97;;;13.49;63.55
6024;BME280;3040;42.654;23.296;2023-04-20T10:19:37;93864.09;;;13.60;64.07
6024;BME280;3040;42.654;23.296;2023-04-20T10:22:05;93884.88;;;13.73;63.42
6024;BME280;3040;42.654;23.296;2023-04-20T10:24:32;93873.25;;;13.59;63.84
6024;BME280;3040;42.654;23.296;2023-04-20T10:27:00;93885.28;;;13.45;63.87
6024;BME280;3040;42.654;23.296;2023-04-20T10:29:28;93871.47;;;13.36;64.49
6024;BME280;3040;42.654;23.296;2023-04-20T10:31:57;93747.81;;;12.73;63.44
6024;BME280;3040;42.654;23.296;2023-04-20T10:34:30;93886.38;;;13.71;63.54
6024;BME280;3040;42.654;23.296;2023-04-20T10:37:06;93870.84;;;14.20;62.76
6024;BME280;3040;42.654;23.296;2023-04-20T10:39:34;93877.16;;;14.39;60.82
6024;BME280;3040;42.654;23.296;2023-04-20T10:42:03;93875.75;;;14.52;60.83
6024;BME280;3040;42.654;23.296;2023-04-20T10:44:30;93854.78;;;14.20;61.26
6024;BME280;3040;42.654;23.296;2023-04-20T10:46:59;93872.31;;;14.14;62.75
6024;BME280;3040;42.654;23.296;2023-04-20T10:49:27;93875.66;;;14.45;62.08
6024;BME280;3040;42.654;23.296;2023-04-20T10:51:56;93876.13;;;14.54;60.83
6024;BME280;3040;42.654;23.296;2023-04-20T10:54:23;93878.31;;;14.89;58.81
6024;BME280;3040;42.654;23.296;2023-04-20T10:56:51;93876.06;;;14.94;60.04
6024;BME280;3040;42.654;23.296;2023-04-20T10:59:21;93868.41;;;15.65;58.56
6024;BME280;3040;42.654;23.296;2023-04-20T11:01:49;93857.03;;;16.14;55.04
6024;BME280;3040;42.654;23.296;2023-04-20T11:04:17;93871.63;;;16.52;56.59
6024;BME280;3040;42.654;23.296;2023-04-20T11:06:45;93764.28;;;15.88;55.79
6024;BME280;3040;42.654;23.296;2023-04-20T11:09:18;93750.13;;;16.20;53.63
6024;BME280;3040;42.654;23.296;2023-04-20T11:11:45;93847.13;;;16.72;53.19
6024;BME280;3040;42.654;23.296;2023-04-20T11:14:12;93865.91;;;17.11;52.80
6024;BME280;3040;42.654;23.296;2023-04-20T11:16:39;93855.19;;;16.79;53.21
6024;BME280;3040;42.654;23.296;2023-04-20T11:19:06;93867.44;;;16.97;53.80
6024;BME280;3040;42.654;23.296;2023-04-20T11:21:37;93844.88;;;17.96;51.46
6024;BME280;3040;42.654;23.296;2023-04-20T11:24:05;93815.81;;;17.63;51.32
6024;BME280;3040;42.654;23.296;2023-04-20T11:26:38;93856.22;;;17.41;50.95
6024;BME280;3040;42.654;23.296;2023-04-20T11:29:06;93853.63;;;16.71;51.53
6024;BME280;3040;42.654;23.296;2023-04-20T11:31:33;93859.03;;;16.74;52.47
6024;BME280;3040;42.654;23.296;2023-04-20T11:34:01;93766.97;;;16.31;51.59
6024;BME280;3040;42.654;23.296;2023-04-20T11:36:28;93849.81;;;16.64;51.91
6024;BME280;3040;42.654;23.296;2023-04-20T11:39:07;93858.22;;;16.49;51.48
6024;BME280;3040;42.654;23.296;2023-04-20T11:41:37;93849.03;;;16.32;52.17
6024;BME280;3040;42.654;23.296;2023-04-20T11:44:06;93838.28;;;16.32;53.98
6024;BME280;3040;42.654;23.296;2023-04-20T11:46:34;93848.22;;;16.28;52.71
6024;BME280;3040;42.654;23.296;2023-04-20T11:49:02;93845.88;;;15.95;53.91
6024;BME280;3040;42.654;23.296;2023-04-20T11:51:29;93847.41;;;15.88;55.84
6024;BME280;3040;42.654;23.296;2023-04-20T11:53:56;93834.31;;;15.69;52.59
6024;BME280;3040;42.654;23.296;2023-04-20T11:56:24;93818.25;;;15.66;53.70
6024;BME280;3040;42.654;23.296;2023-04-20T11:58:51;93823.88;;;15.46;55.11
6024;BME280;3040;42.654;23.296;2023-04-20T12:01:18;93841.66;;;15.86;54.54
6024;BME280;3040;42.654;23.296;2023-04-20T12:03:45;93832.84;;;15.82;54.79
6024;BME280;3040;42.654;23.296;2023-04-20T12:06:12;93833.13;;;15.53;54.39
6024;BME280;3040;42.654;23.296;2023-04-20T12:08:39;93828.56;;;15.67;54.27
6024;BME280;3040;42.654;23.296;2023-04-20T12:11:06;93832.03;;;15.71;53.81
6024;BME280;3040;42.654;23.296;2023-04-20T12:13:34;93831.25;;;15.67;53.20
6024;BME280;3040;42.654;23.296;2023-04-20T12:16:01;93723.72;;;14.75;54.56
6024;BME280;3040;42.654;23.296;2023-04-20T12:18:28;93830.38;;;15.42;56.17
6024;BME280;3040;42.654;23.296;2023-04-20T12:20:55;93833.03;;;15.35;58.56
6024;BME280;3040;42.654;23.296;2023-04-20T12:23:22;93832.66;;;15.36;61.48
6024;BME280;3040;42.654;23.296;2023-04-20T12:25:49;93814.06;;;14.92;63.73
6024;BME280;3040;42.654;23.296;2023-04-20T12:28:16;93836.41;;;15.18;67.94
6024;BME280;3040;42.654;23.296;2023-04-20T12:30:44;93737.69;;;14.44;65.26
6024;BME280;3040;42.654;23.296;2023-04-20T12:33:11;93830.22;;;15.06;64.95
6024;BME280;3040;42.654;23.296;2023-04-20T12:35:38;93829.34;;;14.88;66.24
6024;BME280;3040;42.654;23.296;2023-04-20T12:38:05;93779.44;;;14.08;65.73
6024;BME280;3040;42.654;23.296;2023-04-20T12:40:33;93820.22;;;14.01;66.87
6024;BME280;3040;42.654;23.296;2023-04-20T12:43:00;93823.50;;;14.24;68.48
6024;BME280;3040;42.654;23.296;2023-04-20T12:45:27;93818.22;;;14.32;67.65
6024;BME280;3040;42.654;23.296;2023-04-20T12:47:56;93818.22;;;14.32;68.61
6024;BME280;3040;42.654;23.296;2023-04-20T12:50:24;93796.94;;;14.46;69.00
6024;BME280;3040;42.654;23.296;2023-04-20T12:52:50;93818.69;;;15.02;64.59
6024;BME280;3040;42.654;23.296;2023-04-20T12:55:19;93818.13;;;15.41;65.96
6024;BME280;3040;42.654;23.296;2023-04-20T12:57:46;93707.94;;;15.67;63.11
6024;BME280;3040;42.654;23.296;2023-04-20T13:00:14;93814.28;;;17.55;57.03
6024;BME280;3040;42.654;23.296;2023-04-20T13:02:40;93775.44;;;18.28;55.63
6024;BME280;3040;42.654;23.296;2023-04-20T13:05:09;93822.16;;;19.38;49.46
6024;BME280;3040;42.654;23.296;2023-04-20T13:07:36;93824.59;;;19.25;48.22
6024;BME280;3040;42.654;23.296;2023-04-20T13:10:04;93812.91;;;19.39;48.98
6024;BME280;3040;42.654;23.296;2023-04-20T13:12:31;93816.19;;;19.20;48.95
6024;BME280;3040;42.654;23.296;2023-04-20T13:14:57;93809.38;;;18.15;49.33